Time;durP1;ratioP1;P1;durP2;ratioP2;P2;SDS_P1;SDS_P2;PMS_P1;PMS_P2;Temp;Humidity;BMP_temperature;BMP_pressure;BME280_temperature;BME280_humidity;BME280_pressure;Samples;Min_cycle;Max_cycle;Signal;HPM_P1;HPM_P2
2023/04/02 00:00:08;;;;;;;11.20;9.73;;;6.20;99.90;;;;;;5063444;28;20047;-69
2023/04/02 00:02:44;;;;;;;14.40;10.15;;;6.20;99.90;;;;;;5067266;28;20052;-70
2023/04/02 00:05:15;;;;;;;13.98;11.05;;;6.20;99.90;;;;;;5067424;28;20360;-71
2023/04/02 00:07:43;;;;;;;13.80;11.68;;;6.10;99.90;;;;;;5063575;28;20068;-71
2023/04/02 00:10:47;;;;;;;13.68;11.30;;;6.10;99.90;;;;;;5037275;28;20056;-73
2023/04/02 00:13:13;;;;;;;12.95;10.80;;;6.10;99.90;;;;;;5045190;28;20044;-70
2023/04/02 00:15:41;;;;;;;13.90;10.55;;;6.00;99.90;;;;;;5068069;28;20514;-71
2023/04/02 00:18:12;;;;;;;12.68;10.63;;;6.00;99.90;;;;;;5060523;28;20120;-72
2023/04/02 00:20:41;;;;;;;13.90;11.02;;;6.00;99.90;;;;;;5066787;28;20107;-69
2023/04/02 00:23:11;;;;;;;13.55;11.15;;;5.90;99.90;;;;;;5043368;28;20045;-70
2023/04/02 00:25:44;;;;;;;13.23;10.98;;;5.90;99.90;;;;;;5072902;28;20036;-71
2023/04/02 00:28:19;;;;;;;15.05;11.13;;;5.80;99.90;;;;;;5061054;28;20047;-71
2023/04/02 00:30:54;;;;;;;14.18;11.10;;;5.80;99.90;;;;;;5056383;28;20043;-71
2023/04/02 00:33:24;;;;;;;15.23;10.88;;;5.80;99.90;;;;;;5061765;28;20530;-71
2023/04/02 00:35:52;;;;;;;14.20;10.32;;;5.70;99.90;;;;;;5059752;28;20037;-71
2023/04/02 00:38:26;;;;;;;12.80;10.30;;;5.70;99.90;;;;;;5062827;28;20834;-71
2023/04/02 00:40:56;;;;;;;10.68;8.07;;;5.70;99.90;;;;;;5043465;28;20127;-71
2023/04/02 00:43:31;;;;;;;11.50;8.57;;;5.70;99.90;;;;;;5061145;28;20059;-71
2023/04/02 00:46:09;;;;;;;12.27;7.20;;;5.70;99.90;;;;;;5066577;28;20128;-71
2023/04/02 00:48:39;;;;;;;10.93;7.80;;;5.60;99.90;;;;;;5064666;28;20052;-71
2023/04/02 00:51:18;;;;;;;10.23;7.55;;;5.50;99.90;;;;;;5062283;28;20139;-72
2023/04/02 00:53:46;;;;;;;11.82;7.80;;;5.40;99.90;;;;;;5061420;28;20044;-70
2023/04/02 00:56:38;;;;;;;10.10;7.85;;;5.30;99.90;;;;;;5060334;28;20033;-72
2023/04/02 00:59:13;;;;;;;11.13;7.45;;;5.30;99.90;;;;;;5043450;28;20037;-71
2023/04/02 01:01:41;;;;;;;12.10;7.30;;;5.30;99.90;;;;;;5064086;28;20102;-70
2023/04/02 01:04:31;;;;;;;10.93;6.95;;;5.20;99.90;;;;;;5044162;28;20049;-71
2023/04/02 01:06:57;;;;;;;13.13;6.88;;;5.30;99.90;;;;;;5041787;28;20106;-70
2023/04/02 01:09:41;;;;;;;10.45;6.03;;;5.20;99.90;;;;;;5052308;28;20496;-72
2023/04/02 01:12:38;;;;;;;9.38;6.05;;;5.20;99.90;;;;;;5066124;28;20411;-71
2023/04/02 01:15:11;;;;;;;10.68;5.50;;;5.20;99.90;;;;;;5067542;28;20510;-71
2023/04/02 01:18:06;;;;;;;8.57;5.32;;;5.20;99.90;;;;;;5059167;28;20529;-72
2023/04/02 01:21:09;;;;;;;9.40;4.57;;;5.20;99.90;;;;;;5048739;28;20634;-70
2023/04/02 01:23:51;;;;;;;9.55;4.82;;;5.20;99.90;;;;;;5066213;28;20495;-70
2023/04/02 01:26:53;;;;;;;12.02;4.88;;;5.10;99.90;;;;;;5061820;28;20049;-70
2023/04/02 01:29:23;;;;;;;11.05;4.63;;;5.00;99.90;;;;;;5055461;28;20059;-73
2023/04/02 01:31:51;;;;;;;9.70;5.10;;;5.00;99.90;;;;;;5054613;28;20403;-72
2023/04/02 01:34:20;;;;;;;8.20;4.45;;;4.90;99.90;;;;;;5053421;28;20357;-72
2023/04/02 01:37:24;;;;;;;7.72;4.50;;;4.90;99.90;;;;;;5060090;28;20071;-71
2023/04/02 01:39:55;;;;;;;9.07;4.75;;;4.80;99.90;;;;;;5057655;28;20380;-71
2023/04/02 01:42:33;;;;;;;9.68;4.30;;;4.80;99.90;;;;;;5054433;28;20048;-71
2023/04/02 01:45:04;;;;;;;;;;;4.70;99.90;;;;;;5062758;28;20049;-70
2023/04/02 01:47:32;;;;;;;7.32;3.92;;;4.70;99.90;;;;;;5059298;28;19920;-72
2023/04/02 01:50:20;;;;;;;7.60;3.80;;;4.60;99.90;;;;;;5067697;28;20095;-72
2023/04/02 01:52:50;;;;;;;8.02;3.88;;;4.60;99.90;;;;;;5062618;28;20048;-71
2023/04/02 01:55:30;;;;;;;6.68;4.07;;;4.60;99.90;;;;;;5056287;28;20041;-72
2023/04/02 01:57:58;;;;;;;8.85;4.25;;;4.60;99.90;;;;;;5060520;28;20044;-72
2023/04/02 02:00:26;;;;;;;7.20;3.80;;;4.50;99.90;;;;;;5062220;28;20057;-73
2023/04/02 02:02:52;;;;;;;8.52;3.35;;;4.50;99.90;;;;;;5058821;28;20045;-72
2023/04/02 02:05:21;;;;;;;10.18;3.70;;;4.50;99.90;;;;;;5059963;28;20133;-71
2023/04/02 02:07:48;;;;;;;9.55;3.70;;;4.40;99.90;;;;;;5062414;28;20044;-71
2023/04/02 02:10:26;;;;;;;8.80;3.13;;;4.40;99.90;;;;;;5060925;28;20476;-70
2023/04/02 02:12:51;;;;;;;10.20;3.30;;;4.40;99.90;;;;;;5061101;28;21643;-71
2023/04/02 02:15:21;;;;;;;8.45;3.15;;;4.30;99.90;;;;;;5047830;28;20429;-72
2023/04/02 02:17:47;;;;;;;7.43;2.75;;;4.30;99.90;;;;;;5045013;28;20123;-71
2023/04/02 02:20:14;;;;;;;6.60;2.87;;;4.30;99.90;;;;;;5062234;28;20154;-71
2023/04/02 02:22:46;;;;;;;7.85;3.30;;;4.20;99.90;;;;;;5040060;28;20820;-71
2023/04/02 02:25:21;;;;;;;8.55;3.42;;;4.20;99.90;;;;;;5058208;28;20037;-72
2023/04/02 02:28:12;;;;;;;6.68;3.15;;;4.10;99.90;;;;;;5042550;28;20044;-70
2023/04/02 02:30:46;;;;;;;8.02;3.00;;;4.10;99.90;;;;;;5065293;28;20032;-71
2023/04/02 02:33:24;;;;;;;6.85;2.80;;;4.10;99.90;;;;;;5041628;28;20500;-71
2023/04/02 02:36:04;;;;;;;6.32;2.90;;;3.90;99.90;;;;;;5060481;28;20123;-71
2023/04/02 02:39:00;;;;;;;7.57;3.13;;;3.90;99.90;;;;;;5059411;28;20047;-72
2023/04/02 02:41:36;;;;;;;4.30;2.30;;;3.90;99.90;;;;;;5061742;28;20037;-72
2023/04/02 02:44:24;;;;;;;7.47;2.78;;;3.80;99.90;;;;;;5040311;28;20048;-71
2023/04/02 02:46:56;;;;;;;5.75;2.60;;;3.80;99.90;;;;;;5062597;28;20048;-73
2023/04/02 02:49:27;;;;;;;5.93;2.45;;;3.70;99.90;;;;;;5065783;28;20500;-72
2023/04/02 02:52:08;;;;;;;5.22;2.60;;;3.70;99.90;;;;;;5063072;28;20055;-72
2023/04/02 02:54:55;;;;;;;5.68;2.70;;;3.70;99.90;;;;;;5058495;28;20080;-70
2023/04/02 02:57:26;;;;;;;7.57;3.20;;;3.60;99.90;;;;;;5058722;28;20033;-73
2023/04/02 02:59:55;;;;;;;8.50;2.85;;;3.60;99.90;;;;;;5060009;28;21646;-70
2023/04/02 03:02:22;;;;;;;8.20;2.72;;;3.60;99.90;;;;;;5037792;28;20452;-69
2023/04/02 03:04:51;;;;;;;7.22;3.17;;;3.60;99.90;;;;;;5038450;28;20045;-71
2023/04/02 03:07:20;;;;;;;6.63;3.33;;;3.60;99.90;;;;;;5044620;28;20072;-71
2023/04/02 03:10:11;;;;;;;6.35;2.97;;;3.50;99.90;;;;;;5029239;28;20427;-70
2023/04/02 03:13:04;;;;;;;7.75;3.00;;;3.50;99.90;;;;;;5048003;28;20569;-71
2023/04/02 03:15:30;;;;;;;8.05;3.08;;;3.40;99.90;;;;;;5030207;28;20049;-71
2023/04/02 03:17:59;;;;;;;7.20;3.10;;;3.40;99.90;;;;;;5046694;28;20044;-71
2023/04/02 03:20:51;;;;;;;8.93;4.10;;;3.40;99.90;;;;;;5039284;28;20041;-72
2023/04/02 03:23:34;;;;;;;11.00;4.18;;;3.40;99.90;;;;;;5025459;28;20124;-70
2023/04/02 03:26:10;;;;;;;8.13;3.83;;;3.30;99.90;;;;;;5027655;28;20052;-71
2023/04/02 03:28:42;;;;;;;8.55;4.07;;;3.30;99.90;;;;;;5041108;28;20055;-70
2023/04/02 03:31:12;;;;;;;9.02;4.43;;;3.30;99.90;;;;;;5045327;28;20092;-71
2023/04/02 03:33:43;;;;;;;10.57;5.28;;;3.30;99.90;;;;;;5045799;28;20043;-70
2023/04/02 03:36:09;;;;;;;8.45;4.78;;;3.20;99.90;;;;;;5043442;28;20034;-71
2023/04/02 03:38:42;;;;;;;10.20;5.10;;;3.20;99.90;;;;;;5041871;28;20060;-70
2023/04/02 03:41:18;;;;;;;9.38;5.00;;;3.20;99.90;;;;;;5036393;28;20045;-71
2023/04/02 03:43:55;;;;;;;7.07;5.05;;;3.20;99.90;;;;;;5046672;28;20055;-71
2023/04/02 03:46:32;;;;;;;7.78;5.43;;;3.20;99.90;;;;;;5037096;28;20453;-70
2023/04/02 03:49:00;;;;;;;;;;;3.20;99.90;;;;;;5044793;28;20116;-70
2023/04/02 03:51:31;;;;;;;10.05;5.32;;;3.10;99.90;;;;;;5045363;28;19929;-71
2023/04/02 03:53:57;;;;;;;9.57;5.38;;;3.20;99.90;;;;;;5052151;28;20480;-71
2023/04/02 03:56:30;;;;;;;10.48;5.70;;;3.10;99.90;;;;;;5039834;28;20059;-70
2023/04/02 03:59:25;;;;;;;11.50;5.70;;;3.10;99.90;;;;;;5041637;28;20049;-71
2023/04/02 04:02:05;;;;;;;8.20;5.45;;;3.10;99.90;;;;;;5063281;28;20057;-71
2023/04/02 04:04:32;;;;;;;9.52;5.88;;;3.10;99.90;;;;;;5063681;28;20500;-70
2023/04/02 04:07:00;;;;;;;10.18;5.30;;;3.10;99.90;;;;;;5043697;28;20045;-72
2023/04/02 04:09:29;;;;;;;10.38;5.55;;;3.10;99.90;;;;;;5062279;28;20069;-70
2023/04/02 04:12:09;;;;;;;6.85;5.03;;;3.10;99.90;;;;;;5063654;28;20616;-69
2023/04/02 04:14:41;;;;;;;8.93;5.40;;;3.10;99.90;;;;;;5063418;28;20120;-70
2023/04/02 04:17:08;;;;;;;8.80;5.32;;;3.00;99.90;;;;;;5062297;28;20271;-71
2023/04/02 04:19:48;;;;;;;10.32;6.05;;;3.00;99.90;;;;;;5070985;28;20047;-72
2023/04/02 04:22:18;;;;;;;8.70;6.10;;;3.10;99.90;;;;;;5061475;28;20052;-71
2023/04/02 04:24:46;;;;;;;10.40;5.85;;;3.10;99.90;;;;;;5063354;28;20043;-71
2023/04/02 04:27:22;;;;;;;9.98;7.20;;;3.10;99.90;;;;;;5040188;28;20076;-73
2023/04/02 04:30:04;;;;;;;10.40;6.60;;;3.10;99.90;;;;;;5063474;28;20040;-71
2023/04/02 04:32:37;;;;;;;11.48;7.38;;;3.10;99.90;;;;;;5063158;28;20611;-70
2023/04/02 04:35:14;;;;;;;11.02;7.00;;;3.10;99.90;;;;;;5057261;28;20049;-70
2023/04/02 04:37:48;;;;;;;9.25;6.75;;;3.10;99.90;;;;;;5062662;28;20128;-70
2023/04/02 04:40:22;;;;;;;9.20;7.03;;;3.10;99.90;;;;;;5069709;28;20066;-71
2023/04/02 04:42:53;;;;;;;8.65;6.53;;;3.10;99.90;;;;;;5063142;28;20044;-69
2023/04/02 04:45:39;;;;;;;9.85;6.60;;;3.00;99.90;;;;;;5065214;28;20048;-71
2023/04/02 04:48:17;;;;;;;13.13;6.70;;;3.10;99.90;;;;;;5067073;28;20128;-70
2023/04/02 04:51:07;;;;;;;9.43;6.50;;;3.10;99.90;;;;;;5061164;28;20048;-70
2023/04/02 04:53:39;;;;;;;9.50;6.50;;;3.10;99.90;;;;;;5041085;28;20059;-71
2023/04/02 04:56:06;;;;;;;9.55;5.97;;;3.10;99.90;;;;;;5052720;28;20674;-70
2023/04/02 04:58:36;;;;;;;10.30;6.10;;;3.10;99.90;;;;;;5064218;28;20167;-69
2023/04/02 05:01:27;;;;;;;10.30;5.75;;;3.10;99.90;;;;;;5062154;28;20485;-71
2023/04/02 05:04:05;;;;;;;9.27;6.03;;;3.10;99.90;;;;;;5053218;28;20052;-71
2023/04/02 05:06:38;;;;;;;11.10;6.47;;;3.10;99.90;;;;;;5052205;28;20493;-70
2023/04/02 05:09:29;;;;;;;10.75;6.43;;;3.00;99.90;;;;;;5038046;28;20041;-71
2023/04/02 05:12:10;;;;;;;10.73;6.13;;;3.00;99.90;;;;;;5059541;28;20072;-72
2023/04/02 05:14:44;;;;;;;7.90;5.03;;;3.00;99.90;;;;;;5053181;28;20041;-70
2023/04/02 05:17:30;;;;;;;6.70;3.80;;;3.00;99.90;;;;;;5053348;28;20084;-73
2023/04/02 05:20:08;;;;;;;8.48;3.45;;;3.10;99.90;;;;;;5057940;28;20041;-71
2023/04/02 05:22:37;;;;;;;7.25;3.38;;;3.00;99.90;;;;;;5052714;28;20049;-71
2023/04/02 05:25:26;;;;;;;9.15;3.70;;;3.00;99.90;;;;;;5058317;28;20055;-71
2023/04/02 05:27:57;;;;;;;8.15;2.90;;;3.00;99.90;;;;;;5061779;28;20045;-70
2023/04/02 05:30:23;;;;;;;8.77;3.58;;;3.00;99.90;;;;;;5033230;28;20089;-71
2023/04/02 05:33:26;;;;;;;7.22;2.88;;;2.90;99.90;;;;;;5054400;28;20076;-71
2023/04/02 05:36:03;;;;;;;6.40;2.63;;;2.90;99.90;;;;;;5065200;28;20084;-71
2023/04/02 05:38:33;;;;;;;9.15;3.38;;;2.90;99.90;;;;;;5057458;28;20064;-71
2023/04/02 05:41:03;;;;;;;6.63;3.17;;;3.00;99.90;;;;;;5038595;28;20080;-70
2023/04/02 05:43:32;;;;;;;8.38;3.00;;;3.00;99.90;;;;;;5052378;28;20419;-70
2023/04/02 05:46:05;;;;;;;9.70;3.00;;;3.00;99.90;;;;;;5052670;28;20396;-70
2023/04/02 05:48:42;;;;;;;7.25;2.75;;;3.00;99.90;;;;;;5041443;28;20120;-69
2023/04/02 05:51:23;;;;;;;6.90;3.00;;;3.10;99.90;;;;;;5052383;28;20045;-70
2023/04/02 05:53:54;;;;;;;8.63;3.05;;;3.10;99.90;;;;;;5065888;28;21213;-72
2023/04/02 05:56:24;;;;;;;6.93;2.63;;;3.00;99.90;;;;;;5043974;28;20052;-72
2023/04/02 05:58:56;;;;;;;5.70;3.13;;;3.00;99.90;;;;;;5056709;28;20094;-71
2023/04/02 06:01:48;;;;;;;5.82;2.40;;;3.00;99.90;;;;;;5045696;28;20095;-69
2023/04/02 06:04:24;;;;;;;6.22;2.63;;;3.10;99.90;;;;;;5052314;28;20416;-71
2023/04/02 06:07:07;;;;;;;7.82;2.63;;;3.10;99.90;;;;;;5041887;28;20055;-71
2023/04/02 06:10:02;;;;;;;6.88;2.70;;;3.10;99.90;;;;;;5055229;28;20543;-70
2023/04/02 06:12:40;;;;;;;10.55;2.97;;;3.10;99.90;;;;;;5059206;28;20040;-70
2023/04/02 06:15:12;;;;;;;7.43;2.47;;;3.10;99.90;;;;;;5064554;28;20049;-69
2023/04/02 06:17:52;;;;;;;5.82;2.20;;;3.10;99.90;;;;;;5059589;28;20111;-69
2023/04/02 06:20:20;;;;;;;6.90;2.65;;;3.10;99.90;;;;;;5059998;28;20040;-69
2023/04/02 06:22:58;;;;;;;;;;;3.10;99.90;;;;;;5033680;28;20496;-69
2023/04/02 06:25:38;;;;;;;6.97;2.97;;;3.20;99.90;;;;;;5037317;28;20352;-69
2023/04/02 06:28:07;;;;;;;7.97;2.75;;;3.20;99.90;;;;;;5063116;28;20037;-69
2023/04/02 06:30:37;;;;;;;7.30;2.85;;;3.30;99.90;;;;;;5052063;28;20045;-69
2023/04/02 06:33:03;;;;;;;5.40;2.88;;;3.30;99.90;;;;;;5051868;28;20519;-69
2023/04/02 06:35:29;;;;;;;8.00;2.97;;;3.30;99.90;;;;;;5051491;28;20048;-69
2023/04/02 06:37:58;;;;;;;7.20;2.88;;;3.30;99.90;;;;;;5061079;28;20041;-69
2023/04/02 06:40:50;;;;;;;9.40;2.83;;;3.30;99.90;;;;;;5038046;28;20048;-69
2023/04/02 06:43:35;;;;;;;6.80;2.40;;;3.30;99.90;;;;;;5057677;28;20045;-69
2023/04/02 06:46:12;;;;;;;10.30;3.00;;;3.40;99.90;;;;;;5055271;28;20094;-69
2023/04/02 06:48:39;;;;;;;9.60;3.33;;;3.40;99.90;;;;;;5063564;28;20381;-69
2023/04/02 06:51:11;;;;;;;7.15;2.83;;;3.30;99.90;;;;;;5056573;28;20033;-69
2023/04/02 06:53:44;;;;;;;10.75;3.00;;;3.40;99.90;;;;;;5066420;28;20072;-68
2023/04/02 06:56:31;;;;;;;7.82;3.20;;;3.40;99.90;;;;;;5064713;28;20095;-68
2023/04/02 06:58:57;;;;;;;7.22;3.33;;;3.50;99.90;;;;;;5039694;28;20075;-66
2023/04/02 07:01:28;;;;;;;7.65;3.22;;;3.50;99.90;;;;;;5055018;28;20053;-66
2023/04/02 07:03:55;;;;;;;9.10;3.58;;;3.50;99.90;;;;;;5056131;28;20090;-66
2023/04/02 07:06:21;;;;;;;6.88;3.10;;;3.40;99.90;;;;;;5061887;28;20064;-68
2023/04/02 07:08:47;;;;;;;10.23;3.17;;;3.40;99.90;;;;;;5065617;28;20078;-66
2023/04/02 07:11:20;;;;;;;8.18;3.03;;;3.30;99.90;;;;;;5059055;28;20056;-66
2023/04/02 07:13:46;;;;;;;6.65;2.90;;;3.50;99.90;;;;;;5040468;28;20139;-68
2023/04/02 07:16:22;;;;;;;5.05;2.47;;;3.50;99.90;;;;;;5063906;28;20054;-66
2023/04/02 07:18:48;;;;;;;6.90;3.20;;;3.50;99.90;;;;;;5061113;28;20123;-65
2023/04/02 07:21:13;;;;;;;5.00;2.35;;;3.50;99.90;;;;;;5063217;28;20112;-65
2023/04/02 07:23:39;;;;;;;8.73;2.65;;;3.60;99.90;;;;;;5036325;28;20395;-65
2023/04/02 07:26:07;;;;;;;7.22;2.60;;;3.60;99.90;;;;;;5052602;28;20044;-66
2023/04/02 07:28:33;;;;;;;8.88;2.70;;;3.60;99.90;;;;;;5036563;28;20066;-65
2023/04/02 07:30:59;;;;;;;6.97;2.50;;;3.70;99.90;;;;;;5054070;28;20041;-65
2023/04/02 07:33:28;;;;;;;7.90;2.55;;;3.70;99.90;;;;;;5055143;28;20029;-66
2023/04/02 07:35:55;;;;;;;6.13;2.65;;;3.70;99.90;;;;;;5053655;28;20045;-65
2023/04/02 07:38:21;;;;;;;7.05;2.53;;;3.80;99.90;;;;;;5053719;28;20112;-66
2023/04/02 07:40:46;;;;;;;6.63;2.80;;;3.70;99.90;;;;;;5053502;28;20144;-65
2023/04/02 07:43:12;;;;;;;6.45;3.15;;;3.70;99.90;;;;;;5041472;28;20444;-68
2023/04/02 07:45:38;;;;;;;7.60;2.88;;;3.70;99.90;;;;;;5041606;28;20036;-67
2023/04/02 07:48:09;;;;;;;7.65;3.13;;;3.70;99.90;;;;;;5060956;28;20053;-67
2023/04/02 07:50:35;;;;;;;7.25;3.03;;;3.80;99.90;;;;;;5052194;28;20052;-67
2023/04/02 07:53:01;;;;;;;8.32;3.20;;;3.80;99.90;;;;;;5070723;28;20040;-67
2023/04/02 07:55:27;;;;;;;7.63;3.05;;;3.90;99.90;;;;;;5072286;28;20040;-67
2023/04/02 07:57:57;;;;;;;8.00;3.60;;;3.90;99.90;;;;;;5068772;28;20123;-67
2023/04/02 08:00:24;;;;;;;6.70;3.42;;;3.90;99.90;;;;;;5066759;28;20056;-67
2023/04/02 08:02:50;;;;;;;6.07;3.35;;;3.90;99.90;;;;;;5062441;28;20052;-67
2023/04/02 08:05:17;;;;;;;7.95;4.20;;;4.00;99.90;;;;;;5073091;28;20501;-68
2023/04/02 08:07:43;;;;;;;7.15;3.53;;;4.10;99.90;;;;;;5061198;28;20048;-67
2023/04/02 08:10:11;;;;;;;6.17;3.20;;;4.30;99.90;;;;;;5044610;28;20055;-65
2023/04/02 08:12:37;;;;;;;6.65;2.97;;;4.50;99.90;;;;;;5065671;28;20786;-67
2023/04/02 08:15:07;;;;;;;6.60;2.80;;;4.70;99.90;;;;;;5065093;28;20053;-67
2023/04/02 08:17:33;;;;;;;4.97;2.90;;;4.80;99.90;;;;;;5065831;28;20045;-67
2023/04/02 08:20:04;;;;;;;8.95;3.45;;;5.00;99.90;;;;;;5065855;28;20412;-67
2023/04/02 08:22:30;;;;;;;9.98;3.83;;;5.00;99.90;;;;;;5068154;28;20036;-67
2023/04/02 08:24:56;;;;;;;8.65;3.10;;;5.10;99.90;;;;;;5059824;28;20048;-67
2023/04/02 08:27:23;;;;;;;7.43;3.30;;;5.10;99.90;;;;;;5068948;28;20048;-67
2023/04/02 08:29:50;;;;;;;5.00;2.95;;;5.20;99.90;;;;;;5051606;28;20044;-67
2023/04/02 08:32:15;;;;;;;10.18;3.55;;;5.20;99.90;;;;;;5062659;28;20033;-67
2023/04/02 08:34:42;;;;;;;9.57;3.67;;;5.30;99.90;;;;;;5064005;28;20048;-67
2023/04/02 08:37:11;;;;;;;5.88;3.03;;;5.30;99.90;;;;;;5041300;28;20416;-67
2023/04/02 08:39:40;;;;;;;8.35;3.30;;;5.30;99.90;;;;;;5050742;28;20116;-67
2023/04/02 08:42:13;;;;;;;8.88;3.70;;;5.30;99.90;;;;;;5059361;28;20403;-67
2023/04/02 08:45:07;;;;;;;6.43;3.20;;;5.30;99.90;;;;;;5060191;28;20476;-67
2023/04/02 08:47:39;;;;;;;7.22;3.50;;;5.40;99.90;;;;;;5046838;28;20052;-67
2023/04/02 08:50:11;;;;;;;6.78;3.35;;;5.60;99.90;;;;;;5049379;28;20690;-67
2023/04/02 08:52:37;;;;;;;7.00;3.17;;;5.70;99.90;;;;;;5063814;28;20063;-67
2023/04/02 08:55:17;;;;;;;7.60;3.33;;;5.60;99.90;;;;;;5072190;28;20048;-67
2023/04/02 08:58:09;;;;;;;6.00;3.00;;;5.60;99.90;;;;;;5066749;28;20116;-67
2023/04/02 09:00:40;;;;;;;7.78;3.15;;;5.60;99.90;;;;;;5019400;28;20045;-67
2023/04/02 09:03:15;;;;;;;7.30;3.20;;;5.60;99.90;;;;;;5069589;28;20037;-66
2023/04/02 09:05:43;;;;;;;7.97;3.53;;;5.50;99.90;;;;;;5043298;28;20116;-67
2023/04/02 09:08:19;;;;;;;;;;;5.50;99.90;;;;;;5071147;28;20094;-68
2023/04/02 09:11:05;;;;;;;10.77;3.25;;;5.60;99.90;;;;;;5065808;28;19934;-67
2023/04/02 09:13:36;;;;;;;5.90;3.08;;;5.50;99.90;;;;;;5059679;28;20054;-66
2023/04/02 09:16:13;;;;;;;7.15;2.90;;;5.50;99.90;;;;;;5041277;28;20527;-67
2023/04/02 09:18:39;;;;;;;6.15;2.65;;;5.40;99.90;;;;;;5046423;28;20045;-67
2023/04/02 09:21:20;;;;;;;6.18;2.63;;;5.40;99.90;;;;;;5065744;28;20044;-68
2023/04/02 09:23:47;;;;;;;6.05;2.33;;;5.50;99.90;;;;;;5065372;28;20113;-65
2023/04/02 09:26:26;;;;;;;7.40;2.40;;;5.60;99.90;;;;;;5065851;28;20049;-65
2023/04/02 09:28:58;;;;;;;7.55;2.40;;;5.70;99.90;;;;;;5064718;28;20051;-66
2023/04/02 09:31:38;;;;;;;4.63;1.92;;;5.90;99.90;;;;;;5063442;28;20036;-66
2023/04/02 09:34:31;;;;;;;5.88;2.20;;;6.00;99.90;;;;;;5061460;28;20110;-66
2023/04/02 09:37:06;;;;;;;8.00;3.08;;;6.00;99.90;;;;;;5069415;28;20040;-66
2023/04/02 09:39:31;;;;;;;5.88;2.70;;;6.00;99.90;;;;;;5046069;28;20048;-66
2023/04/02 09:41:57;;;;;;;5.75;2.67;;;6.00;99.90;;;;;;5066063;28;20047;-66
2023/04/02 09:44:25;;;;;;;4.82;2.47;;;6.00;99.90;;;;;;5038060;28;20077;-66
2023/04/02 09:46:58;;;;;;;7.32;2.75;;;6.00;99.90;;;;;;5057798;28;20098;-66
2023/04/02 09:49:28;;;;;;;5.10;2.38;;;5.90;99.90;;;;;;5058737;28;20460;-66
2023/04/02 09:52:20;;;;;;;8.40;3.00;;;6.00;99.90;;;;;;5052462;28;20095;-66
2023/04/02 09:55:04;;;;;;;7.05;2.38;;;6.00;99.90;;;;;;5061845;28;20041;-67
2023/04/02 09:57:32;;;;;;;6.80;2.50;;;6.10;99.90;;;;;;5052680;28;20150;-66
2023/04/02 10:00:26;;;;;;;5.97;2.70;;;6.20;99.90;;;;;;5051550;28;20377;-66
2023/04/02 10:03:16;;;;;;;7.18;2.83;;;6.30;99.90;;;;;;5057613;28;20096;-68
2023/04/02 10:05:42;;;;;;;7.88;2.55;;;6.40;99.90;;;;;;5034412;28;20045;-69
2023/04/02 10:08:27;;;;;;;4.35;2.50;;;6.50;99.90;;;;;;5054683;28;20051;-72
2023/04/02 10:10:56;;;;;;;7.45;2.53;;;6.60;99.90;;;;;;5036650;28;20102;-72
2023/04/02 10:13:25;;;;;;;5.55;2.15;;;6.70;99.90;;;;;;5065251;28;20083;-67
2023/04/02 10:15:56;;;;;;;4.95;2.35;;;6.70;99.90;;;;;;5055096;28;20045;-70
2023/04/02 10:18:36;;;;;;;4.35;2.00;;;6.80;99.90;;;;;;5050123;28;20056;-68
2023/04/02 10:21:04;;;;;;;4.22;2.10;;;6.90;99.90;;;;;;5036427;28;20099;-69
2023/04/02 10:23:31;;;;;;;6.68;2.42;;;7.00;99.90;;;;;;5044448;28;20051;-71
2023/04/02 10:26:02;;;;;;;4.10;2.03;;;7.00;99.90;;;;;;5056796;28;20093;-69
2023/04/02 10:28:43;;;;;;;4.20;1.88;;;7.00;99.90;;;;;;5049834;28;20040;-68
2023/04/02 10:31:26;;;;;;;6.70;2.15;;;7.00;99.90;;;;;;5052040;28;20381;-69
2023/04/02 10:34:01;;;;;;;6.63;2.65;;;7.10;99.90;;;;;;5046394;28;20484;-70
2023/04/02 10:36:36;;;;;;;6.18;2.20;;;7.20;99.90;;;;;;5030248;28;20060;-70
2023/04/02 10:39:26;;;;;;;5.15;2.20;;;7.40;99.90;;;;;;5028408;28;20044;-70
2023/04/02 10:41:51;;;;;;;5.13;2.25;;;7.50;99.90;;;;;;5046764;28;20060;-68
2023/04/02 10:44:26;;;;;;;6.47;2.25;;;7.50;99.90;;;;;;5063051;28;20123;-70
2023/04/02 10:47:21;;;;;;;6.70;2.67;;;7.60;99.90;;;;;;5065431;28;20526;-69
2023/04/02 10:50:03;;;;;;;4.43;1.90;;;7.70;99.90;;;;;;5051384;28;20056;-71
2023/04/02 10:52:37;;;;;;;5.43;2.38;;;7.80;99.90;;;;;;5054087;28;20041;-71
2023/04/02 10:55:15;;;;;;;6.15;2.25;;;7.80;99.90;;;;;;5063440;28;20569;-67
2023/04/02 10:57:44;;;;;;;5.15;2.22;;;7.90;99.90;;;;;;5055890;28;20037;-67
2023/04/02 11:00:10;;;;;;;6.15;2.00;;;7.90;99.90;;;;;;5059319;28;20097;-67
2023/04/02 11:02:50;;;;;;;6.03;1.77;;;8.00;99.90;;;;;;5057731;28;20574;-65
2023/04/02 11:05:25;;;;;;;3.80;1.80;;;8.00;99.90;;;;;;5057728;28;20048;-66
2023/04/02 11:07:56;;;;;;;4.40;2.00;;;7.90;99.90;;;;;;5044839;28;20480;-70
2023/04/02 11:10:22;;;;;;;5.32;2.10;;;7.90;99.90;;;;;;5050447;28;20052;-70
2023/04/02 11:13:11;;;;;;;5.82;1.85;;;8.00;99.90;;;;;;5062076;28;20049;-67
2023/04/02 11:15:37;;;;;;;7.05;2.28;;;8.00;99.90;;;;;;5026324;28;20499;-67
2023/04/02 11:18:03;;;;;;;4.40;2.00;;;8.00;99.90;;;;;;5062490;28;20037;-67
2023/04/02 11:20:42;;;;;;;5.80;2.10;;;8.00;99.90;;;;;;5044045;28;20048;-68
2023/04/02 11:23:17;;;;;;;4.88;2.40;;;8.10;99.90;;;;;;5049026;28;20060;-69
2023/04/02 11:25:44;;;;;;;6.55;2.38;;;8.30;99.90;;;;;;5062898;28;20048;-69
2023/04/02 11:28:30;;;;;;;4.85;2.10;;;8.40;99.90;;;;;;5065843;28;20098;-68
2023/04/02 11:30:57;;;;;;;5.50;2.00;;;8.50;99.90;;;;;;5063752;28;20104;-68
2023/04/02 11:33:32;;;;;;;6.93;2.20;;;8.50;99.90;;;;;;5067289;28;20048;-68
2023/04/02 11:35:58;;;;;;;4.18;1.92;;;8.60;99.90;;;;;;5067612;28;20058;-67
2023/04/02 11:38:23;;;;;;;4.07;1.80;;;8.70;99.90;;;;;;5060529;28;20045;-68
2023/04/02 11:40:54;;;;;;;5.80;2.20;;;8.70;99.90;;;;;;5063022;28;20480;-67
2023/04/02 11:43:32;;;;;;;5.68;2.15;;;8.80;99.90;;;;;;5061048;28;20087;-67
2023/04/02 11:46:02;;;;;;;4.63;1.98;;;8.90;99.90;;;;;;5066963;28;20051;-67
2023/04/02 11:48:34;;;;;;;4.63;2.10;;;9.00;99.90;;;;;;5069427;28;20044;-68
2023/04/02 11:51:09;;;;;;;6.32;1.85;;;9.00;99.90;;;;;;5067626;28;20037;-66
2023/04/02 11:53:35;;;;;;;7.20;2.00;;;9.00;99.90;;;;;;5061383;28;20454;-69
2023/04/02 11:56:38;;;;;;;3.90;1.60;;;9.00;99.90;;;;;;5050773;28;20040;-68
2023/04/02 11:59:22;;;;;;;4.45;1.83;;;9.10;99.90;;;;;;5064965;28;20052;-67
2023/04/02 12:02:12;;;;;;;3.38;1.70;;;9.20;99.90;;;;;;5039754;28;20112;-68
2023/04/02 12:05:06;;;;;;;4.90;1.70;;;9.20;99.90;;;;;;5037568;28;20478;-69
2023/04/02 12:07:50;;;;;;;6.50;1.63;;;9.20;99.90;;;;;;5044931;28;20057;-67
2023/04/02 12:10:31;;;;;;;2.58;1.42;;;9.30;99.90;;;;;;5040693;28;20168;-69
2023/04/02 12:12:57;;;;;;;4.85;1.90;;;9.30;99.90;;;;;;5039852;28;20053;-68
2023/04/02 12:15:45;;;;;;;3.42;1.70;;;9.30;99.90;;;;;;5041815;28;20522;-69
2023/04/02 12:18:15;;;;;;;4.53;1.65;;;9.30;99.90;;;;;;5045241;28;20480;-68
2023/04/02 12:20:46;;;;;;;5.10;1.65;;;9.30;99.90;;;;;;5033582;28;20099;-68
2023/04/02 12:23:17;;;;;;;5.63;1.77;;;9.30;99.90;;;;;;5036922;28;20045;-68
2023/04/02 12:25:45;;;;;;;4.22;1.60;;;9.40;99.90;;;;;;5035093;28;20092;-67
2023/04/02 12:28:19;;;;;;;6.38;1.95;;;9.40;99.90;;;;;;5040210;28;20068;-67
2023/04/02 12:30:46;;;;;;;4.97;1.50;;;9.50;99.90;;;;;;5033077;28;20053;-66
2023/04/02 12:33:18;;;;;;;5.00;1.77;;;9.50;99.90;;;;;;5041397;28;20041;-66
2023/04/02 12:35:45;;;;;;;6.07;1.85;;;9.50;99.90;;;;;;5041066;28;20064;-69
2023/04/02 12:38:20;;;;;;;2.97;1.50;;;9.50;99.90;;;;;;5046827;28;20055;-77
2023/04/02 12:40:55;;;;;;;5.55;1.77;;;9.40;99.90;;;;;;5043801;28;20041;-76
2023/04/02 12:43:29;;;;;;;5.05;1.80;;;9.40;99.90;;;;;;5044023;28;20056;-72
2023/04/02 12:45:58;;;;;;;3.53;1.45;;;9.30;99.90;;;;;;5040843;28;20076;-68
2023/04/02 12:48:26;;;;;;;3.67;1.45;;;9.40;99.90;;;;;;5038967;28;20173;-70
2023/04/02 12:50:52;;;;;;;4.57;1.88;;;9.60;99.90;;;;;;5043654;28;20045;-72
2023/04/02 12:53:32;;;;;;;4.75;1.80;;;9.60;99.90;;;;;;5045332;28;20049;-71
2023/04/02 12:55:58;;;;;;;3.38;1.67;;;9.70;99.90;;;;;;5045945;28;20392;-70
2023/04/02 12:58:39;;;;;;;4.28;1.70;;;9.70;99.90;;;;;;5037186;28;20037;-68
2023/04/02 13:01:23;;;;;;;3.63;1.55;;;9.80;99.90;;;;;;5049713;28;20053;-70
2023/04/02 13:04:02;;;;;;;5.13;1.80;;;9.90;99.90;;;;;;5039691;28;20518;-75
2023/04/02 13:06:29;;;;;;;4.30;1.85;;;10.00;98.80;;;;;;5054567;28;20049;-75
2023/04/02 13:08:56;;;;;;;5.72;1.70;;;9.90;98.10;;;;;;5038517;28;20053;-74
2023/04/02 13:11:31;;;;;;;3.85;1.58;;;9.90;99.00;;;;;;5058219;28;20063;-72
2023/04/02 13:14:01;;;;;;;3.45;1.70;;;9.80;99.90;;;;;;5059419;28;20045;-73
2023/04/02 13:16:32;;;;;;;4.93;1.67;;;10.00;98.90;;;;;;5044635;28;20041;-74
2023/04/02 13:19:24;;;;;;;3.83;1.40;;;10.00;97.70;;;;;;5052173;28;20041;-73
2023/04/02 13:21:51;;;;;;;4.60;2.63;;;10.00;98.10;;;;;;5048842;28;20045;-71
2023/04/02 13:24:21;;;;;;;;;;;10.10;99.70;;;;;;5045316;28;20044;-74
2023/04/02 13:26:49;;;;;;;5.18;1.60;;;10.20;99.90;;;;;;5039512;28;19921;-76
2023/04/02 13:29:35;;;;;;;3.55;1.42;;;10.30;97.50;;;;;;5051458;28;20052;-72
2023/04/02 13:32:04;;;;;;;2.65;1.30;;;10.20;96.10;;;;;;5060053;28;20472;-71